sensor_id;sensor_type;location;lat;lon;timestamp;P1;durP1;ratioP1;P2;durP2;ratioP2
13309;SDS011;6723;48.256;16.402;2023-03-24T00:00:00;23.53;;;19.53;;
13309;SDS011;6723;48.256;16.402;2023-03-24T00:02:29;25.33;;;20.33;;
13309;SDS011;6723;48.256;16.402;2023-03-24T00:05:01;24.30;;;19.73;;
13309;SDS011;6723;48.256;16.402;2023-03-24T00:07:30;28.80;;;20.90;;
13309;SDS011;6723;48.256;16.402;2023-03-24T00:09:58;24.63;;;21.07;;
13309;SDS011;6723;48.256;16.402;2023-03-24T00:12:24;33.60;;;20.83;;
13309;SDS011;6723;48.256;16.402;2023-03-24T00:14:50;25.67;;;20.13;;
13309;SDS011;6723;48.256;16.402;2023-03-24T00:17:19;28.03;;;20.37;;
13309;SDS011;6723;48.256;16.402;2023-03-24T00:19:49;31.30;;;21.87;;
13309;SDS011;6723;48.256;16.402;2023-03-24T00:22:16;28.07;;;20.93;;
13309;SDS011;6723;48.256;16.402;2023-03-24T00:24:42;27.10;;;21.67;;
13309;SDS011;6723;48.256;16.402;2023-03-24T00:27:10;26.47;;;21.33;;
13309;SDS011;6723;48.256;16.402;2023-03-24T00:29:42;25.47;;;19.93;;
13309;SDS011;6723;48.256;16.402;2023-03-24T00:32:08;27.73;;;21.07;;
13309;SDS011;6723;48.256;16.402;2023-03-24T00:34:33;26.33;;;20.33;;
13309;SDS011;6723;48.256;16.402;2023-03-24T00:37:03;28.27;;;21.73;;
13309;SDS011;6723;48.256;16.402;2023-03-24T00:39:30;25.00;;;21.10;;
13309;SDS011;6723;48.256;16.402;2023-03-24T00:41:57;25.80;;;21.33;;
13309;SDS011;6723;48.256;16.402;2023-03-24T00:44:23;32.40;;;21.30;;
13309;SDS011;6723;48.256;16.402;2023-03-24T00:46:50;25.20;;;21.57;;
13309;SDS011;6723;48.256;16.402;2023-03-24T00:49:23;27.30;;;21.63;;
13309;SDS011;6723;48.256;16.402;2023-03-24T00:52:10;24.77;;;21.43;;
13309;SDS011;6723;48.256;16.402;2023-03-24T00:54:39;30.70;;;22.17;;
13309;SDS011;6723;48.256;16.402;2023-03-24T00:57:06;26.93;;;20.87;;
13309;SDS011;6723;48.256;16.402;2023-03-24T00:59:33;29.63;;;21.30;;
13309;SDS011;6723;48.256;16.402;2023-03-24T01:02:07;27.60;;;21.43;;
13309;SDS011;6723;48.256;16.402;2023-03-24T01:04:39;26.60;;;21.20;;
13309;SDS011;6723;48.256;16.402;2023-03-24T01:07:08;26.60;;;21.70;;
13309;SDS011;6723;48.256;16.402;2023-03-24T01:09:37;30.57;;;21.60;;
13309;SDS011;6723;48.256;16.402;2023-03-24T01:12:03;27.83;;;21.87;;
13309;SDS011;6723;48.256;16.402;2023-03-24T01:14:31;29.93;;;22.67;;
13309;SDS011;6723;48.256;16.402;2023-03-24T01:16:57;27.03;;;21.67;;
13309;SDS011;6723;48.256;16.402;2023-03-24T01:19:24;29.07;;;23.00;;
13309;SDS011;6723;48.256;16.402;2023-03-24T01:21:50;26.97;;;22.63;;
13309;SDS011;6723;48.256;16.402;2023-03-24T01:24:18;26.60;;;22.57;;
13309;SDS011;6723;48.256;16.402;2023-03-24T01:26:50;28.17;;;22.53;;
13309;SDS011;6723;48.256;16.402;2023-03-24T01:29:16;30.90;;;22.13;;
13309;SDS011;6723;48.256;16.402;2023-03-24T01:31:42;28.77;;;23.03;;
13309;SDS011;6723;48.256;16.402;2023-03-24T01:34:08;27.57;;;22.57;;
13309;SDS011;6723;48.256;16.402;2023-03-24T01:36:33;28.40;;;23.20;;
13309;SDS011;6723;48.256;16.402;2023-03-24T01:38:59;28.47;;;22.33;;
13309;SDS011;6723;48.256;16.402;2023-03-24T01:41:26;29.90;;;22.80;;
13309;SDS011;6723;48.256;16.402;2023-03-24T01:44:00;28.40;;;22.93;;
13309;SDS011;6723;48.256;16.402;2023-03-24T01:46:46;27.13;;;22.63;;
13309;SDS011;6723;48.256;16.402;2023-03-24T01:49:12;29.63;;;22.30;;
13309;SDS011;6723;48.256;16.402;2023-03-24T01:51:39;26.43;;;22.63;;
13309;SDS011;6723;48.256;16.402;2023-03-24T01:54:11;30.57;;;22.37;;
13309;SDS011;6723;48.256;16.402;2023-03-24T01:56:55;26.93;;;22.57;;
13309;SDS011;6723;48.256;16.402;2023-03-24T01:59:35;30.03;;;22.50;;
13309;SDS011;6723;48.256;16.402;2023-03-24T02:02:05;28.40;;;22.37;;
13309;SDS011;6723;48.256;16.402;2023-03-24T02:04:38;28.50;;;22.53;;
13309;SDS011;6723;48.256;16.402;2023-03-24T02:07:09;29.30;;;22.13;;
13309;SDS011;6723;48.256;16.402;2023-03-24T02:09:57;26.63;;;21.00;;
13309;SDS011;6723;48.256;16.402;2023-03-24T02:12:29;23.77;;;21.13;;
13309;SDS011;6723;48.256;16.402;2023-03-24T02:14:56;23.67;;;21.03;;
13309;SDS011;6723;48.256;16.402;2023-03-24T02:17:34;25.43;;;21.83;;
13309;SDS011;6723;48.256;16.402;2023-03-24T02:38:48;28.37;;;21.93;;
13309;SDS011;6723;48.256;16.402;2023-03-24T02:52:59;31.90;;;24.20;;
13309;SDS011;6723;48.256;16.402;2023-03-24T02:58:29;30.47;;;23.93;;
13309;SDS011;6723;48.256;16.402;2023-03-24T03:01:07;34.10;;;25.07;;
13309;SDS011;6723;48.256;16.402;2023-03-24T03:03:39;27.47;;;24.23;;
13309;SDS011;6723;48.256;16.402;2023-03-24T03:06:16;28.93;;;25.00;;
13309;SDS011;6723;48.256;16.402;2023-03-24T03:08:50;28.67;;;23.43;;
13309;SDS011;6723;48.256;16.402;2023-03-24T03:11:17;33.80;;;25.47;;
13309;SDS011;6723;48.256;16.402;2023-03-24T03:16:49;26.73;;;23.30;;
13309;SDS011;6723;48.256;16.402;2023-03-24T03:19:29;31.53;;;24.23;;
13309;SDS011;6723;48.256;16.402;2023-03-24T03:21:58;32.43;;;24.30;;
13309;SDS011;6723;48.256;16.402;2023-03-24T03:24:32;29.40;;;23.77;;
13309;SDS011;6723;48.256;16.402;2023-03-24T03:27:06;28.00;;;23.53;;
13309;SDS011;6723;48.256;16.402;2023-03-24T03:29:40;31.73;;;24.57;;
13309;SDS011;6723;48.256;16.402;2023-03-24T03:32:11;31.13;;;23.97;;
13309;SDS011;6723;48.256;16.402;2023-03-24T03:40:00;31.03;;;24.50;;
13309;SDS011;6723;48.256;16.402;2023-03-24T03:42:36;31.63;;;23.57;;
13309;SDS011;6723;48.256;16.402;2023-03-24T03:45:03;32.77;;;24.47;;
13309;SDS011;6723;48.256;16.402;2023-03-24T03:47:33;28.53;;;24.07;;
13309;SDS011;6723;48.256;16.402;2023-03-24T03:50:00;27.43;;;23.67;;
13309;SDS011;6723;48.256;16.402;2023-03-24T03:52:26;34.17;;;24.63;;
13309;SDS011;6723;48.256;16.402;2023-03-24T03:54:52;28.80;;;24.30;;
13309;SDS011;6723;48.256;16.402;2023-03-24T03:57:20;29.27;;;23.97;;
13309;SDS011;6723;48.256;16.402;2023-03-24T03:59:45;29.87;;;24.10;;
13309;SDS011;6723;48.256;16.402;2023-03-24T04:17:55;30.70;;;25.03;;
13309;SDS011;6723;48.256;16.402;2023-03-24T04:26:36;28.80;;;24.33;;
13309;SDS011;6723;48.256;16.402;2023-03-24T04:29:33;28.83;;;24.30;;
13309;SDS011;6723;48.256;16.402;2023-03-24T04:32:17;27.60;;;23.60;;
13309;SDS011;6723;48.256;16.402;2023-03-24T04:34:52;30.43;;;24.90;;
13309;SDS011;6723;48.256;16.402;2023-03-24T04:37:32;32.73;;;25.53;;
13309;SDS011;6723;48.256;16.402;2023-03-24T04:40:04;29.27;;;23.20;;
13309;SDS011;6723;48.256;16.402;2023-03-24T04:42:36;29.67;;;24.47;;
13309;SDS011;6723;48.256;16.402;2023-03-24T04:45:09;30.80;;;24.30;;
13309;SDS011;6723;48.256;16.402;2023-03-24T04:47:41;27.90;;;23.40;;
13309;SDS011;6723;48.256;16.402;2023-03-24T04:50:15;31.30;;;24.43;;
13309;SDS011;6723;48.256;16.402;2023-03-24T04:52:55;30.30;;;24.33;;
13309;SDS011;6723;48.256;16.402;2023-03-24T04:58:02;27.00;;;23.37;;
13309;SDS011;6723;48.256;16.402;2023-03-24T05:00:28;31.60;;;25.03;;
13309;SDS011;6723;48.256;16.402;2023-03-24T05:02:56;27.40;;;23.03;;
13309;SDS011;6723;48.256;16.402;2023-03-24T05:05:22;28.43;;;24.07;;
13309;SDS011;6723;48.256;16.402;2023-03-24T05:07:47;29.30;;;23.47;;
13309;SDS011;6723;48.256;16.402;2023-03-24T05:10:14;27.20;;;22.93;;
13309;SDS011;6723;48.256;16.402;2023-03-24T05:12:41;27.03;;;22.37;;
13309;SDS011;6723;48.256;16.402;2023-03-24T05:15:06;27.00;;;21.47;;
13309;SDS011;6723;48.256;16.402;2023-03-24T05:17:33;26.10;;;22.83;;
13309;SDS011;6723;48.256;16.402;2023-03-24T05:19:59;28.57;;;21.20;;
13309;SDS011;6723;48.256;16.402;2023-03-24T05:22:25;24.23;;;20.37;;
13309;SDS011;6723;48.256;16.402;2023-03-24T05:24:51;23.60;;;18.87;;
13309;SDS011;6723;48.256;16.402;2023-03-24T05:27:16;20.33;;;15.87;;
13309;SDS011;6723;48.256;16.402;2023-03-24T05:29:42;16.13;;;13.53;;
13309;SDS011;6723;48.256;16.402;2023-03-24T05:32:08;15.43;;;12.20;;
13309;SDS011;6723;48.256;16.402;2023-03-24T05:34:34;13.47;;;12.10;;
13309;SDS011;6723;48.256;16.402;2023-03-24T05:36:59;14.10;;;11.77;;
13309;SDS011;6723;48.256;16.402;2023-03-24T05:39:25;18.00;;;13.37;;
13309;SDS011;6723;48.256;16.402;2023-03-24T05:41:51;18.77;;;12.77;;
13309;SDS011;6723;48.256;16.402;2023-03-24T05:44:17;18.10;;;14.00;;
13309;SDS011;6723;48.256;16.402;2023-03-24T05:46:42;17.53;;;14.00;;
13309;SDS011;6723;48.256;16.402;2023-03-24T05:49:08;18.07;;;13.83;;
13309;SDS011;6723;48.256;16.402;2023-03-24T05:51:34;19.60;;;15.47;;
13309;SDS011;6723;48.256;16.402;2023-03-24T05:54:00;18.03;;;13.83;;
13309;SDS011;6723;48.256;16.402;2023-03-24T05:56:26;20.07;;;15.03;;
13309;SDS011;6723;48.256;16.402;2023-03-24T05:58:52;19.23;;;15.10;;
13309;SDS011;6723;48.256;16.402;2023-03-24T06:01:18;23.83;;;15.90;;
13309;SDS011;6723;48.256;16.402;2023-03-24T06:03:44;21.23;;;16.00;;
13309;SDS011;6723;48.256;16.402;2023-03-24T06:06:10;20.93;;;16.10;;
13309;SDS011;6723;48.256;16.402;2023-03-24T06:08:41;22.03;;;16.73;;
13309;SDS011;6723;48.256;16.402;2023-03-24T06:11:09;18.47;;;15.90;;
13309;SDS011;6723;48.256;16.402;2023-03-24T06:13:36;19.23;;;16.30;;
13309;SDS011;6723;48.256;16.402;2023-03-24T06:16:02;19.60;;;16.90;;
13309;SDS011;6723;48.256;16.402;2023-03-24T06:18:28;20.97;;;17.07;;
13309;SDS011;6723;48.256;16.402;2023-03-24T06:20:57;21.23;;;17.13;;
13309;SDS011;6723;48.256;16.402;2023-03-24T06:23:25;20.57;;;17.10;;
13309;SDS011;6723;48.256;16.402;2023-03-24T06:25:53;19.47;;;17.37;;
13309;SDS011;6723;48.256;16.402;2023-03-24T06:28:20;22.40;;;17.33;;
13309;SDS011;6723;48.256;16.402;2023-03-24T06:30:46;21.97;;;17.40;;
13309;SDS011;6723;48.256;16.402;2023-03-24T06:33:13;20.83;;;17.27;;
13309;SDS011;6723;48.256;16.402;2023-03-24T06:35:40;27.40;;;18.10;;
13309;SDS011;6723;48.256;16.402;2023-03-24T06:38:06;26.27;;;17.73;;
13309;SDS011;6723;48.256;16.402;2023-03-24T06:43:01;24.60;;;18.80;;
13309;SDS011;6723;48.256;16.402;2023-03-24T06:45:27;21.70;;;18.40;;
13309;SDS011;6723;48.256;16.402;2023-03-24T06:47:53;20.40;;;17.87;;
13309;SDS011;6723;48.256;16.402;2023-03-24T06:50:23;24.60;;;18.53;;
13309;SDS011;6723;48.256;16.402;2023-03-24T06:52:51;24.03;;;17.83;;
13309;SDS011;6723;48.256;16.402;2023-03-24T06:55:18;19.57;;;16.83;;
13309;SDS011;6723;48.256;16.402;2023-03-24T06:57:44;22.30;;;17.43;;
13309;SDS011;6723;48.256;16.402;2023-03-24T07:00:09;22.20;;;16.57;;
13309;SDS011;6723;48.256;16.402;2023-03-24T07:02:36;19.93;;;17.17;;
13309;SDS011;6723;48.256;16.402;2023-03-24T07:05:03;24.60;;;17.83;;
13309;SDS011;6723;48.256;16.402;2023-03-24T07:07:35;21.97;;;18.03;;
13309;SDS011;6723;48.256;16.402;2023-03-24T07:10:02;22.03;;;17.07;;
13309;SDS011;6723;48.256;16.402;2023-03-24T07:12:29;19.37;;;16.77;;
13309;SDS011;6723;48.256;16.402;2023-03-24T07:14:55;18.40;;;16.50;;
13309;SDS011;6723;48.256;16.402;2023-03-24T07:17:22;21.03;;;17.27;;
13309;SDS011;6723;48.256;16.402;2023-03-24T07:19:48;21.90;;;16.93;;
13309;SDS011;6723;48.256;16.402;2023-03-24T07:22:14;23.83;;;17.67;;
13309;SDS011;6723;48.256;16.402;2023-03-24T07:24:40;19.40;;;16.17;;
13309;SDS011;6723;48.256;16.402;2023-03-24T07:27:05;18.03;;;16.13;;
13309;SDS011;6723;48.256;16.402;2023-03-24T07:29:31;24.73;;;17.40;;
13309;SDS011;6723;48.256;16.402;2023-03-24T07:31:57;22.53;;;16.73;;
13309;SDS011;6723;48.256;16.402;2023-03-24T07:34:25;19.23;;;16.30;;
13309;SDS011;6723;48.256;16.402;2023-03-24T07:36:54;21.57;;;16.83;;
13309;SDS011;6723;48.256;16.402;2023-03-24T07:39:20;21.23;;;17.47;;
13309;SDS011;6723;48.256;16.402;2023-03-24T07:41:46;20.30;;;17.70;;
13309;SDS011;6723;48.256;16.402;2023-03-24T07:44:12;28.17;;;16.53;;
13309;SDS011;6723;48.256;16.402;2023-03-24T07:46:38;20.07;;;16.87;;
13309;SDS011;6723;48.256;16.402;2023-03-24T07:49:04;21.87;;;17.60;;
13309;SDS011;6723;48.256;16.402;2023-03-24T07:51:30;22.27;;;17.93;;
13309;SDS011;6723;48.256;16.402;2023-03-24T07:53:57;30.67;;;18.77;;
13309;SDS011;6723;48.256;16.402;2023-03-24T07:56:22;26.83;;;17.57;;
13309;SDS011;6723;48.256;16.402;2023-03-24T07:58:49;26.37;;;17.70;;
13309;SDS011;6723;48.256;16.402;2023-03-24T08:01:15;21.63;;;17.67;;
13309;SDS011;6723;48.256;16.402;2023-03-24T08:03:41;22.73;;;17.97;;
13309;SDS011;6723;48.256;16.402;2023-03-24T08:06:07;22.17;;;17.97;;
13309;SDS011;6723;48.256;16.402;2023-03-24T08:08:34;25.70;;;19.17;;
13309;SDS011;6723;48.256;16.402;2023-03-24T08:11:01;20.90;;;17.63;;
13309;SDS011;6723;48.256;16.402;2023-03-24T08:13:30;20.87;;;17.73;;
13309;SDS011;6723;48.256;16.402;2023-03-24T08:15:56;24.37;;;17.83;;
13309;SDS011;6723;48.256;16.402;2023-03-24T08:18:22;24.03;;;17.53;;
13309;SDS011;6723;48.256;16.402;2023-03-24T08:20:49;25.03;;;16.77;;
13309;SDS011;6723;48.256;16.402;2023-03-24T08:23:20;22.97;;;17.47;;
13309;SDS011;6723;48.256;16.402;2023-03-24T08:25:45;26.03;;;19.73;;
13309;SDS011;6723;48.256;16.402;2023-03-24T08:28:14;27.10;;;23.37;;
13309;SDS011;6723;48.256;16.402;2023-03-24T08:30:40;20.60;;;17.13;;
13309;SDS011;6723;48.256;16.402;2023-03-24T08:33:11;23.20;;;17.20;;
13309;SDS011;6723;48.256;16.402;2023-03-24T08:35:38;18.43;;;16.47;;
13309;SDS011;6723;48.256;16.402;2023-03-24T08:38:06;19.37;;;16.70;;
13309;SDS011;6723;48.256;16.402;2023-03-24T08:40:34;19.63;;;16.90;;
13309;SDS011;6723;48.256;16.402;2023-03-24T08:43:02;19.53;;;15.87;;
13309;SDS011;6723;48.256;16.402;2023-03-24T08:45:32;22.50;;;15.73;;
13309;SDS011;6723;48.256;16.402;2023-03-24T08:48:00;18.33;;;16.37;;
13309;SDS011;6723;48.256;16.402;2023-03-24T08:50:29;18.30;;;16.40;;
13309;SDS011;6723;48.256;16.402;2023-03-24T08:52:59;19.87;;;14.87;;
13309;SDS011;6723;48.256;16.402;2023-03-24T08:55:26;25.63;;;16.17;;
13309;SDS011;6723;48.256;16.402;2023-03-24T08:57:52;18.57;;;16.10;;
13309;SDS011;6723;48.256;16.402;2023-03-24T09:00:18;18.77;;;16.57;;
13309;SDS011;6723;48.256;16.402;2023-03-24T09:02:46;20.67;;;16.77;;
13309;SDS011;6723;48.256;16.402;2023-03-24T09:05:14;23.97;;;15.93;;
13309;SDS011;6723;48.256;16.402;2023-03-24T09:07:44;23.13;;;16.60;;
13309;SDS011;6723;48.256;16.402;2023-03-24T09:10:11;23.90;;;16.43;;
13309;SDS011;6723;48.256;16.402;2023-03-24T09:12:38;26.17;;;15.73;;
13309;SDS011;6723;48.256;16.402;2023-03-24T09:15:07;19.83;;;15.40;;
13309;SDS011;6723;48.256;16.402;2023-03-24T09:17:34;16.67;;;14.97;;
13309;SDS011;6723;48.256;16.402;2023-03-24T09:20:01;19.73;;;15.13;;
13309;SDS011;6723;48.256;16.402;2023-03-24T09:22:31;16.23;;;14.50;;
13309;SDS011;6723;48.256;16.402;2023-03-24T09:24:57;20.27;;;14.87;;
13309;SDS011;6723;48.256;16.402;2023-03-24T09:27:23;18.03;;;14.50;;
13309;SDS011;6723;48.256;16.402;2023-03-24T09:29:49;17.40;;;13.63;;
13309;SDS011;6723;48.256;16.402;2023-03-24T09:32:14;15.63;;;13.20;;
13309;SDS011;6723;48.256;16.402;2023-03-24T09:34:40;17.10;;;13.97;;
13309;SDS011;6723;48.256;16.402;2023-03-24T09:37:06;16.90;;;12.80;;
13309;SDS011;6723;48.256;16.402;2023-03-24T09:39:34;18.10;;;12.97;;
13309;SDS011;6723;48.256;16.402;2023-03-24T09:42:02;20.90;;;13.50;;
13309;SDS011;6723;48.256;16.402;2023-03-24T09:44:37;17.53;;;13.17;;
13309;SDS011;6723;48.256;16.402;2023-03-24T09:49:48;14.30;;;11.93;;
13309;SDS011;6723;48.256;16.402;2023-03-24T09:52:18;14.67;;;12.00;;
13309;SDS011;6723;48.256;16.402;2023-03-24T09:54:57;15.17;;;12.87;;
13309;SDS011;6723;48.256;16.402;2023-03-24T09:57:27;13.83;;;12.00;;
13309;SDS011;6723;48.256;16.402;2023-03-24T10:00:16;15.27;;;13.60;;
13309;SDS011;6723;48.256;16.402;2023-03-24T10:02:47;18.10;;;12.97;;
13309;SDS011;6723;48.256;16.402;2023-03-24T10:05:18;16.17;;;12.50;;
13309;SDS011;6723;48.256;16.402;2023-03-24T10:07:54;14.03;;;12.50;;
13309;SDS011;6723;48.256;16.402;2023-03-24T10:14:03;15.00;;;11.43;;
13309;SDS011;6723;48.256;16.402;2023-03-24T10:21:49;13.33;;;11.83;;
13309;SDS011;6723;48.256;16.402;2023-03-24T10:24:40;13.13;;;11.30;;
13309;SDS011;6723;48.256;16.402;2023-03-24T10:27:22;15.23;;;11.50;;
13309;SDS011;6723;48.256;16.402;2023-03-24T10:29:53;14.77;;;11.90;;
13309;SDS011;6723;48.256;16.402;2023-03-24T10:32:24;17.37;;;11.53;;
13309;SDS011;6723;48.256;16.402;2023-03-24T10:34:57;12.97;;;11.67;;
13309;SDS011;6723;48.256;16.402;2023-03-24T10:37:31;13.57;;;11.60;;
13309;SDS011;6723;48.256;16.402;2023-03-24T10:39:58;16.03;;;11.63;;
13309;SDS011;6723;48.256;16.402;2023-03-24T10:42:27;16.40;;;11.73;;
13309;SDS011;6723;48.256;16.402;2023-03-24T10:44:57;11.17;;;9.80;;
13309;SDS011;6723;48.256;16.402;2023-03-24T10:47:24;13.80;;;10.00;;
13309;SDS011;6723;48.256;16.402;2023-03-24T10:49:53;10.10;;;9.10;;
13309;SDS011;6723;48.256;16.402;2023-03-24T10:52:24;10.47;;;9.47;;
13309;SDS011;6723;48.256;16.402;2023-03-24T10:54:55;11.47;;;9.40;;
13309;SDS011;6723;48.256;16.402;2023-03-24T10:57:22;17.27;;;9.50;;
13309;SDS011;6723;48.256;16.402;2023-03-24T10:59:54;13.63;;;9.43;;
13309;SDS011;6723;48.256;16.402;2023-03-24T11:02:29;12.50;;;9.63;;
13309;SDS011;6723;48.256;16.402;2023-03-24T11:05:01;14.03;;;10.33;;
13309;SDS011;6723;48.256;16.402;2023-03-24T11:07:31;11.97;;;10.60;;
13309;SDS011;6723;48.256;16.402;2023-03-24T11:12:38;10.80;;;9.67;;
13309;SDS011;6723;48.256;16.402;2023-03-24T11:15:18;10.20;;;9.13;;
13309;SDS011;6723;48.256;16.402;2023-03-24T11:17:51;12.27;;;9.20;;
13309;SDS011;6723;48.256;16.402;2023-03-24T11:20:31;13.93;;;9.20;;
13309;SDS011;6723;48.256;16.402;2023-03-24T11:23:13;12.03;;;9.83;;
13309;SDS011;6723;48.256;16.402;2023-03-24T11:25:41;12.20;;;9.40;;
13309;SDS011;6723;48.256;16.402;2023-03-24T11:28:14;11.90;;;9.47;;
13309;SDS011;6723;48.256;16.402;2023-03-24T11:33:20;13.63;;;10.10;;
13309;SDS011;6723;48.256;16.402;2023-03-24T11:35:50;10.70;;;8.77;;
13309;SDS011;6723;48.256;16.402;2023-03-24T11:38:17;12.50;;;8.93;;
13309;SDS011;6723;48.256;16.402;2023-03-24T11:40:52;13.20;;;9.00;;
13309;SDS011;6723;48.256;16.402;2023-03-24T11:43:23;12.07;;;9.03;;
13309;SDS011;6723;48.256;16.402;2023-03-24T11:46:04;10.83;;;9.30;;
13309;SDS011;6723;48.256;16.402;2023-03-24T11:48:44;10.40;;;9.27;;
13309;SDS011;6723;48.256;16.402;2023-03-24T11:51:22;13.27;;;10.17;;
13309;SDS011;6723;48.256;16.402;2023-03-24T11:53:53;12.43;;;10.23;;
13309;SDS011;6723;48.256;16.402;2023-03-24T11:59:08;12.37;;;10.83;;
13309;SDS011;6723;48.256;16.402;2023-03-24T12:01:43;13.93;;;12.27;;
13309;SDS011;6723;48.256;16.402;2023-03-24T12:12:31;14.87;;;12.20;;
13309;SDS011;6723;48.256;16.402;2023-03-24T12:25:29;19.40;;;13.17;;
13309;SDS011;6723;48.256;16.402;2023-03-24T12:42:20;15.97;;;12.17;;
13309;SDS011;6723;48.256;16.402;2023-03-24T12:53:01;17.40;;;12.33;;
13309;SDS011;6723;48.256;16.402;2023-03-24T12:56:00;15.83;;;12.13;;
13309;SDS011;6723;48.256;16.402;2023-03-24T13:03:41;14.57;;;10.93;;
13309;SDS011;6723;48.256;16.402;2023-03-24T13:08:45;17.10;;;11.30;;
13309;SDS011;6723;48.256;16.402;2023-03-24T13:11:30;16.83;;;10.70;;
13309;SDS011;6723;48.256;16.402;2023-03-24T13:14:02;12.40;;;10.33;;
13309;SDS011;6723;48.256;16.402;2023-03-24T13:16:34;12.93;;;10.40;;
13309;SDS011;6723;48.256;16.402;2023-03-24T13:19:02;22.63;;;11.07;;
13309;SDS011;6723;48.256;16.402;2023-03-24T13:21:28;14.73;;;11.20;;
13309;SDS011;6723;48.256;16.402;2023-03-24T13:26:51;16.40;;;11.33;;
13309;SDS011;6723;48.256;16.402;2023-03-24T13:37:32;12.97;;;11.60;;
13309;SDS011;6723;48.256;16.402;2023-03-24T13:40:17;15.33;;;10.33;;
13309;SDS011;6723;48.256;16.402;2023-03-24T13:42:51;12.93;;;10.53;;
13309;SDS011;6723;48.256;16.402;2023-03-24T13:53:16;16.37;;;11.27;;
13309;SDS011;6723;48.256;16.402;2023-03-24T13:55:47;13.23;;;11.13;;
13309;SDS011;6723;48.256;16.402;2023-03-24T13:58:19;15.00;;;11.83;;
13309;SDS011;6723;48.256;16.402;2023-03-24T14:01:03;12.83;;;10.87;;
13309;SDS011;6723;48.256;16.402;2023-03-24T14:03:40;18.67;;;11.83;;
13309;SDS011;6723;48.256;16.402;2023-03-24T14:06:09;13.97;;;10.50;;
13309;SDS011;6723;48.256;16.402;2023-03-24T14:19:40;14.13;;;11.40;;
13309;SDS011;6723;48.256;16.402;2023-03-24T14:22:14;17.93;;;12.00;;
13309;SDS011;6723;48.256;16.402;2023-03-24T14:25:01;16.47;;;11.30;;
13309;SDS011;6723;48.256;16.402;2023-03-24T14:27:35;18.93;;;12.13;;
13309;SDS011;6723;48.256;16.402;2023-03-24T14:32:36;16.00;;;11.57;;
13309;SDS011;6723;48.256;16.402;2023-03-24T14:40:44;16.23;;;11.90;;
13309;SDS011;6723;48.256;16.402;2023-03-24T14:48:56;15.17;;;11.80;;
13309;SDS011;6723;48.256;16.402;2023-03-24T14:51:29;17.10;;;11.37;;
13309;SDS011;6723;48.256;16.402;2023-03-24T14:54:05;18.00;;;11.53;;
13309;SDS011;6723;48.256;16.402;2023-03-24T14:56:41;15.27;;;12.10;;
13309;SDS011;6723;48.256;16.402;2023-03-24T15:02:26;12.47;;;10.00;;
13309;SDS011;6723;48.256;16.402;2023-03-24T15:05:29;11.70;;;9.03;;
13309;SDS011;6723;48.256;16.402;2023-03-24T15:07:59;16.80;;;8.83;;
13309;SDS011;6723;48.256;16.402;2023-03-24T15:10:25;11.13;;;6.73;;
13309;SDS011;6723;48.256;16.402;2023-03-24T15:12:55;10.20;;;5.30;;
13309;SDS011;6723;48.256;16.402;2023-03-24T15:15:23;5.87;;;4.73;;
13309;SDS011;6723;48.256;16.402;2023-03-24T15:17:50;11.47;;;5.07;;
13309;SDS011;6723;48.256;16.402;2023-03-24T15:22:53;7.40;;;4.90;;
13309;SDS011;6723;48.256;16.402;2023-03-24T15:25:34;8.67;;;5.43;;
13309;SDS011;6723;48.256;16.402;2023-03-24T15:28:10;9.70;;;5.27;;
13309;SDS011;6723;48.256;16.402;2023-03-24T15:30:46;4.17;;;3.40;;
13309;SDS011;6723;48.256;16.402;2023-03-24T15:33:13;5.33;;;3.63;;
13309;SDS011;6723;48.256;16.402;2023-03-24T15:35:39;7.13;;;4.67;;
13309;SDS011;6723;48.256;16.402;2023-03-24T15:38:05;9.30;;;4.10;;
13309;SDS011;6723;48.256;16.402;2023-03-24T15:40:35;4.97;;;3.70;;
13309;SDS011;6723;48.256;16.402;2023-03-24T15:43:04;3.93;;;3.30;;
13309;SDS011;6723;48.256;16.402;2023-03-24T15:45:35;6.60;;;3.30;;
13309;SDS011;6723;48.256;16.402;2023-03-24T15:48:10;3.80;;;2.50;;
13309;SDS011;6723;48.256;16.402;2023-03-24T15:50:41;5.67;;;2.20;;
13309;SDS011;6723;48.256;16.402;2023-03-24T15:53:29;4.43;;;1.90;;
13309;SDS011;6723;48.256;16.402;2023-03-24T15:56:42;2.17;;;1.70;;
13309;SDS011;6723;48.256;16.402;2023-03-24T16:01:37;2.33;;;1.50;;
13309;SDS011;6723;48.256;16.402;2023-03-24T16:04:12;1.90;;;1.60;;
13309;SDS011;6723;48.256;16.402;2023-03-24T16:06:46;2.53;;;1.70;;
13309;SDS011;6723;48.256;16.402;2023-03-24T16:09:15;2.70;;;1.53;;
13309;SDS011;6723;48.256;16.402;2023-03-24T16:11:46;2.97;;;2.17;;
13309;SDS011;6723;48.256;16.402;2023-03-24T16:14:23;3.13;;;2.00;;
13309;SDS011;6723;48.256;16.402;2023-03-24T16:16:56;2.00;;;1.80;;
13309;SDS011;6723;48.256;16.402;2023-03-24T16:19:35;2.40;;;1.97;;
13309;SDS011;6723;48.256;16.402;2023-03-24T16:22:08;3.67;;;1.90;;
13309;SDS011;6723;48.256;16.402;2023-03-24T16:24:36;1.80;;;1.43;;
13309;SDS011;6723;48.256;16.402;2023-03-24T16:27:02;3.87;;;1.37;;
13309;SDS011;6723;48.256;16.402;2023-03-24T16:29:28;2.80;;;1.40;;
13309;SDS011;6723;48.256;16.402;2023-03-24T16:31:55;2.97;;;1.70;;
13309;SDS011;6723;48.256;16.402;2023-03-24T16:34:22;5.03;;;2.83;;
13309;SDS011;6723;48.256;16.402;2023-03-24T16:36:52;2.13;;;1.60;;
13309;SDS011;6723;48.256;16.402;2023-03-24T16:39:25;5.83;;;2.03;;
13309;SDS011;6723;48.256;16.402;2023-03-24T16:41:53;2.23;;;1.43;;
13309;SDS011;6723;48.256;16.402;2023-03-24T16:44:23;3.33;;;2.20;;
13309;SDS011;6723;48.256;16.402;2023-03-24T16:46:55;4.47;;;2.00;;
13309;SDS011;6723;48.256;16.402;2023-03-24T16:49:21;5.93;;;2.20;;
13309;SDS011;6723;48.256;16.402;2023-03-24T16:51:48;3.37;;;2.37;;
13309;SDS011;6723;48.256;16.402;2023-03-24T16:54:14;4.30;;;2.27;;
13309;SDS011;6723;48.256;16.402;2023-03-24T16:56:40;3.53;;;2.20;;
13309;SDS011;6723;48.256;16.402;2023-03-24T16:59:07;2.90;;;2.40;;
13309;SDS011;6723;48.256;16.402;2023-03-24T17:01:36;4.10;;;2.30;;
13309;SDS011;6723;48.256;16.402;2023-03-24T17:04:16;3.60;;;3.07;;
13309;SDS011;6723;48.256;16.402;2023-03-24T17:06:45;4.30;;;2.27;;
13309;SDS011;6723;48.256;16.402;2023-03-24T17:09:23;3.43;;;2.27;;
13309;SDS011;6723;48.256;16.402;2023-03-24T17:11:52;3.93;;;2.07;;
13309;SDS011;6723;48.256;16.402;2023-03-24T17:14:22;4.13;;;3.10;;
13309;SDS011;6723;48.256;16.402;2023-03-24T17:16:48;5.33;;;2.67;;
13309;SDS011;6723;48.256;16.402;2023-03-24T17:19:17;3.00;;;2.27;;
13309;SDS011;6723;48.256;16.402;2023-03-24T17:21:57;2.73;;;2.40;;
13309;SDS011;6723;48.256;16.402;2023-03-24T17:24:27;4.73;;;3.07;;
13309;SDS011;6723;48.256;16.402;2023-03-24T17:26:54;8.80;;;5.97;;
13309;SDS011;6723;48.256;16.402;2023-03-24T17:29:20;4.13;;;3.30;;
13309;SDS011;6723;48.256;16.402;2023-03-24T17:31:47;3.63;;;2.30;;
13309;SDS011;6723;48.256;16.402;2023-03-24T17:34:13;5.37;;;2.60;;
13309;SDS011;6723;48.256;16.402;2023-03-24T17:36:42;3.67;;;2.50;;
13309;SDS011;6723;48.256;16.402;2023-03-24T17:39:08;2.67;;;2.47;;
13309;SDS011;6723;48.256;16.402;2023-03-24T17:41:39;3.13;;;2.70;;
13309;SDS011;6723;48.256;16.402;2023-03-24T17:44:06;4.10;;;2.53;;
13309;SDS011;6723;48.256;16.402;2023-03-24T17:46:32;3.53;;;2.73;;
13309;SDS011;6723;48.256;16.402;2023-03-24T17:48:59;4.07;;;2.90;;
13309;SDS011;6723;48.256;16.402;2023-03-24T17:51:25;4.27;;;2.60;;